Terminal Aerodrome Forecast
Issued by NWS Greer, SC

Home | Current Version | Previous Version | Text Only | Print | Product List | Glossary On
Versions: 1 2 3 4 5 6 7 8 9 10 11 12 13 14 15 16 17 18 19 20
000
FTUS42 KGSP 181741
TAFAVL
TAF
KAVL 181741Z 1818/1918 17005KT P6SM SKC
     FM190000 VRB03KT P6SM SKC
     FM190800 00000KT 3SM BR FEW002
     FM191000 00000KT 1/2SM FG OVC002
     FM191200 00000KT P6SM OVC002
     FM191400 34004KT P6SM SKC=

USA.gov is the U.S. government's official web portal to all federal, state and local government web resources and services.